Flight Track Log - Related Links

Times and Time Zones

All times are in EDT time to prevent confusion due to time zone crossing. See the SWA652 flight status page for this flight to view local times or setup timezone preferences in your user account.

Time Position Orientation Groundspeed Altitude Reporting Facility
EDT Latitude Longitude Course Direction KTS MPH feet Rate Location/Type
Sun 08:28:08 PM 41.3542 -81.8942 175° South 209 241 2,800  Level Cleveland Center
Sun 08:28:31 PM 41.3292 -81.8911 175° South 240 276 3,500 2,459 Climbing Cleveland Center
Sun 08:29:09 PM 41.2856 -81.8708 161° South 284 327 5,300 3,100 Climbing Cleveland Center
Sun 08:29:31 PM 41.2608 -81.8483 146° Southeast 280 322 6,600 3,253 Climbing Cleveland Center
Sun 08:30:32 PM 41.1947 -81.7944 148° Southeast 289 333 9,800 2,727 Climbing Cleveland Center
Sun 08:31:32 PM 41.1475 -81.7247 132° Southeast 289 333 12,100 1,800 Climbing Cleveland Center
Sun 08:32:32 PM 41.0692 -81.6353 139° Southeast 302 348 13,400 1,815 Climbing Cleveland Center
Sun 08:33:31 PM 40.9781 -81.5650 150° Southeast 353 406 15,700 2,319 Climbing Cleveland Center
Sun 08:34:31 PM 40.8808 -81.4894 150° Southeast 390 449 18,000 2,132 Climbing Cleveland Center
Sun 08:35:32 PM 40.7811 -81.4111 149° Southeast 405 466 20,000 1,983 Climbing Cleveland Center
Sun 08:36:32 PM 40.6839 -81.3333 149° Southeast 410 472 22,000 1,866 Climbing Cleveland Center
Sun 08:37:31 PM 40.5906 -81.2583 149° Southeast 428 493 23,700 1,815 Climbing Cleveland Center
Sun 08:38:31 PM 40.4847 -81.1756 149° Southeast 428 493 25,600 1,488 Climbing Cleveland Center
Sun 08:39:32 PM 40.3767 -81.0900 149° Southeast 433 498 26,700 1,587 Climbing Cleveland Center
Sun 08:40:32 PM 40.2894 -80.9697 134° Southeast 455 524 28,800 1,160 Climbing Cleveland Center
Sun 08:41:31 PM 40.2378 -80.8061 112° Southeast 456 525 29,000 101 Climbing Cleveland Center
Sun 08:42:31 PM 40.1858 -80.6375 112° Southeast 470 541 29,000  Level Cleveland Center
Sun 08:43:31 PM 40.1317 -80.4744 113° Southeast 482 555 29,000  Level Cleveland Center
Sun 08:44:32 PM 40.0731 -80.3144 116° Southeast 488 562 29,000  Level Cleveland Center
Sun 08:45:31 PM 40.0225 -80.1519 112° Southeast 488 562 29,000  Level Cleveland Center
Sun 08:47:07 PM 39.9386 -79.9050 114° Southeast 491 565 29,000  Level Washington Center
Sun 08:48:08 PM 39.8878 -79.7506 113° Southeast 479 551 29,000  Level Washington Center
Sun 08:49:08 PM 39.8350 -79.5906 113° Southeast 474 545 29,000  Level Washington Center
Sun 08:50:09 PM 39.7817 -79.4339 114° Southeast 468 539 29,000 -605 Level Washington Center
Sun 08:51:07 PM 39.7261 -79.2744 114° Southeast 473 544 27,800 -1,866 Descending Washington Center
Sun 08:52:08 PM 39.6708 -79.1097 114° Southeast 484 557 25,300 -1,488 Descending Washington Center
Sun 08:53:08 PM 39.6317 -78.9489 108° East 479 551 24,800 -756 Descending Washington Center
Sun 08:54:07 PM 39.5947 -78.7719 105° East 467 537 23,800 -1,500 Descending Washington Center
Sun 08:55:08 PM 39.5589 -78.6197 107° East 455 524 21,800 -1,967 Descending Washington Center
Sun 08:56:09 PM 39.5253 -78.4703 106° East 444 511 19,800 -2,017 Descending Washington Center
Sun 08:57:07 PM 39.4931 -78.3264 106° East 433 498 17,800 -2,085 Descending Washington Center
Sun 08:58:07 PM 39.4628 -78.1883 106° East 416 479 15,700 -1,388 Descending Washington Center
Sun 08:59:08 PM 39.4342 -78.0583 106° East 397 457 15,000 -344 Descending Washington Center
Sun 09:00:09 PM 39.4056 -77.9283 106° East 379 436 15,000  Level Washington Center
Sun 09:01:09 PM 39.4122 -77.7969 86° East 366 421 15,000  Level Washington Center
Sun 09:02:09 PM 39.4208 -77.6683 85° East 361 415 15,000 -864 Level Washington Center
Sun 09:03:07 PM 39.4311 -77.5394 84° East 361 415 13,300 -1,765 Descending Washington Center
Sun 09:04:08 PM 39.4417 -77.4108 84° East 361 415 11,500 -1,232 Descending Washington Center
Sun 09:04:59 PM 39.4500 -77.3000 84° East 353 406 11,000 -286 Descending Potomac TRACON
Sun 09:05:53 PM 39.4667 -77.2000 78° East 363 418 11,000 -421 Level Potomac TRACON
Sun 09:06:53 PM 39.4667 -77.0667 90° East 333 383 10,200 -1,050 Descending Potomac TRACON
Sun 09:07:53 PM 39.4667 -76.9500 90° East 314 361 8,900 -1,400 Descending Potomac TRACON
Sun 09:08:53 PM 39.4667 -76.8500 90° East 304 350 7,400 -1,550 Descending Potomac TRACON
Sun 09:09:53 PM 39.4667 -76.7333 90° East 304 350 5,800 -1,200 Descending Potomac TRACON
Sun 09:10:53 PM 39.4500 -76.6333 102° East 305 351 5,000 -900 Descending Potomac TRACON
Sun 09:11:53 PM 39.3833 -76.5667 142° Southeast 298 343 4,000 -500 Descending Potomac TRACON
Sun 09:12:53 PM 39.3333 -76.5167 142° Southeast 279 321 4,000  Level Potomac TRACON
Sun 09:13:53 PM 39.2500 -76.4833 163° South 266 306 4,000 -400 Level Potomac TRACON
Sun 09:14:53 PM 39.1833 -76.5000 191° South 240 276 3,200 -550 Descending Potomac TRACON
Sun 09:15:53 PM 39.1333 -76.5333 207° Southwest 198 228 2,900 -650 Descending Potomac TRACON
Sun 09:16:53 PM 39.1000 -76.5667 218° Southwest 168 193 1,900 -750 Descending Potomac TRACON
Sun 09:17:53 PM 39.1167 -76.6167 293° West 142 163 1,400 -650 Descending Potomac TRACON
Sun 09:18:53 PM 39.1500 -76.6500 322° Northwest 134 154 600 -800 Descending Potomac TRACON
Sun 09:20:00 PM 39.1667 -76.6667 288° West  Level FlightAware Approximate
Sun 09:27:00 PM 39.1754 -76.6683 288° West  Level Estimated

Login

Don't have an account? Register now (free) for customized features, flight alerts, and more!